KHQM/HQM METAR and TAF weather

Enter ICAO airport designator
Station Type Date Time Source
KHQM METAR 2019/08/19 07:53 UTC NOAA

KHQM 190753Z AUTO 30004KT 9SM SCT015 16/15 A2993 RMK AO2 SLP138 T01560150 402060144


Station Type Date Time Source
KHQM Decoded METAR 2019/08/19 07:53 UTC NOAA

Station name not available
Aug 19, 2019 - 03:53 AM EDT / 2019.08.19 0753 UTC
Wind: from the WNW (300 degrees) at 5 MPH (4 KT):0
Visibility: 9 mile(s):0
Sky conditions: partly cloudy
Temperature: 60.1 F (15.6 C)
Dew Point: 59.0 F (15.0 C)
Relative Humidity: 96%
Pressure (altimeter): 29.93 in. Hg (1013 hPa)
ob: KHQM 190753Z AUTO 30004KT 9SM SCT015 16/15 A2993 RMK AO2 SLP138 T01560150 402060144
cycle: 8

Station Type Date Time Source
KHQM TAF 2019/08/19 06:22 UTC NOAA

TAF KHQM 190520Z 1906/2006 29007KT P6SM FEW015
FM190800 VRB04KT P6SM OVC015
FM191000 26003KT P6SM OVC007
FM191900 24010KT P6SM SCT010 OVC025
FM192100 26007KT P6SM SCT025

Example: see airport list